createdAt,value
2024-04-18T00:01:27.798Z,100.00
2024-04-18T00:03:54.747Z,100.00
2024-04-18T00:06:22.043Z,100.00
2024-04-18T00:08:49.260Z,100.00
2024-04-18T00:11:25.172Z,100.00
2024-04-18T00:13:52.173Z,100.00
2024-04-18T00:16:37.263Z,100.00
2024-04-18T00:19:17.184Z,100.00
2024-04-18T00:21:57.790Z,100.00
2024-04-18T00:24:30.690Z,100.00
2024-04-18T00:26:58.053Z,100.00
2024-04-18T00:29:38.409Z,100.00
2024-04-18T00:32:12.277Z,100.00
2024-04-18T00:34:59.503Z,100.00
2024-04-18T00:37:34.869Z,100.00
2024-04-18T00:40:01.859Z,100.00
2024-04-18T00:42:40.675Z,100.00
2024-04-18T00:45:08.408Z,100.00
2024-04-18T00:47:49.875Z,100.00
2024-04-18T00:50:19.738Z,100.00
2024-04-18T00:52:48.688Z,100.00
2024-04-18T00:55:30.022Z,100.00
2024-04-18T00:58:12.821Z,100.00
2024-04-18T01:00:43.897Z,100.00
2024-04-18T01:03:30.135Z,100.00
2024-04-18T01:06:10.036Z,100.00
2024-04-18T01:08:56.692Z,100.00
2024-04-18T01:11:31.321Z,100.00
2024-04-18T01:14:00.146Z,100.00
2024-04-18T01:16:29.775Z,100.00
2024-04-18T01:18:56.669Z,100.00
2024-04-18T01:21:23.558Z,100.00
2024-04-18T01:23:51.371Z,100.00
2024-04-18T01:26:20.026Z,100.00
2024-04-18T01:28:46.884Z,100.00
2024-04-18T01:31:31.782Z,100.00
2024-04-18T01:33:59.049Z,100.00
2024-04-18T01:36:26.404Z,100.00
2024-04-18T01:38:53.575Z,100.00
2024-04-18T01:41:33.447Z,100.00
2024-04-18T01:44:00.512Z,100.00
2024-04-18T01:46:46.135Z,100.00
2024-04-18T01:49:30.775Z,100.00
2024-04-18T01:51:57.602Z,100.00
2024-04-18T01:54:34.493Z,100.00
2024-04-18T01:57:02.189Z,100.00
2024-04-18T01:59:50.112Z,100.00
2024-04-18T02:02:17.257Z,100.00
2024-04-18T02:05:04.242Z,100.00
2024-04-18T02:07:43.527Z,100.00
2024-04-18T02:10:10.619Z,100.00
2024-04-18T02:12:57.847Z,100.00
2024-04-18T02:15:54.253Z,100.00
2024-04-18T02:18:21.384Z,100.00
2024-04-18T02:20:48.257Z,100.00
2024-04-18T02:23:24.628Z,100.00
2024-04-18T02:25:51.756Z,100.00
2024-04-18T02:28:18.596Z,100.00
2024-04-18T02:30:45.813Z,100.00
2024-04-18T02:33:17.495Z,100.00
2024-04-18T02:35:45.763Z,100.00
2024-04-18T02:38:33.151Z,100.00
2024-04-18T02:41:04.574Z,100.00
2024-04-18T02:43:51.804Z,100.00
2024-04-18T02:46:18.936Z,100.00
2024-04-18T02:49:04.666Z,100.00
2024-04-18T02:51:31.798Z,100.00
2024-04-18T02:54:14.678Z,100.00
2024-04-18T02:56:42.166Z,100.00
2024-04-18T02:59:09.609Z,100.00
2024-04-18T03:01:51.156Z,100.00
2024-04-18T03:04:19.890Z,100.00
2024-04-18T03:06:47.502Z,100.00
2024-04-18T03:09:15.890Z,100.00
2024-04-18T03:11:55.426Z,100.00
2024-04-18T03:14:50.422Z,100.00
2024-04-18T03:17:37.438Z,100.00
2024-04-18T03:20:04.670Z,100.00
2024-04-18T03:22:51.475Z,100.00
2024-04-18T03:25:18.434Z,100.00
2024-04-18T03:28:02.589Z,100.00
2024-04-18T03:30:29.517Z,100.00
2024-04-18T03:33:09.251Z,100.00
2024-04-18T03:35:39.811Z,100.00
2024-04-18T03:38:16.185Z,100.00
2024-04-18T03:40:43.112Z,100.00
2024-04-18T03:43:10.019Z,100.00
2024-04-18T03:45:37.050Z,100.00
2024-04-18T03:48:22.622Z,100.00
2024-04-18T03:50:49.709Z,100.00
2024-04-18T03:53:19.738Z,100.00
2024-04-18T03:55:46.665Z,100.00
2024-04-18T03:58:13.758Z,100.00
2024-04-18T04:00:48.655Z,100.00
2024-04-18T04:03:15.819Z,100.00
2024-04-18T04:05:42.733Z,100.00
2024-04-18T04:08:10.781Z,100.00
2024-04-18T04:10:43.445Z,100.00
2024-04-18T04:13:10.591Z,100.00
2024-04-18T04:15:52.595Z,100.00
2024-04-18T04:18:38.234Z,100.00
2024-04-18T04:21:37.661Z,100.00
2024-04-18T04:24:05.008Z,100.00
2024-04-18T04:26:50.850Z,100.00
2024-04-18T04:29:17.913Z,100.00
2024-04-18T04:31:44.952Z,100.00
2024-04-18T04:34:13.860Z,100.00
2024-04-18T04:36:40.779Z,100.00
2024-04-18T04:39:07.608Z,100.00
2024-04-18T04:41:41.051Z,100.00
2024-04-18T04:44:08.087Z,100.00
2024-04-18T04:46:52.263Z,100.00
2024-04-18T04:49:20.423Z,100.00
2024-04-18T04:52:03.585Z,100.00
2024-04-18T04:54:43.222Z,100.00
2024-04-18T04:57:11.479Z,100.00
2024-04-18T04:59:38.630Z,100.00
2024-04-18T05:02:05.910Z,100.00
2024-04-18T05:04:49.196Z,100.00
2024-04-18T05:07:32.979Z,100.00
2024-04-18T05:10:19.989Z,100.00
2024-04-18T05:12:47.025Z,100.00
2024-04-18T05:15:34.664Z,100.00
2024-04-18T05:18:01.785Z,100.00
2024-04-18T05:20:28.711Z,100.00
2024-04-18T05:22:58.647Z,100.00
2024-04-18T05:25:25.854Z,100.00
2024-04-18T05:28:15.003Z,100.00
2024-04-18T05:31:03.127Z,100.00
2024-04-18T05:33:34.809Z,100.00
2024-04-18T05:36:02.468Z,100.00
2024-04-18T05:38:30.196Z,100.00
2024-04-18T05:40:57.234Z,100.00
2024-04-18T05:43:44.062Z,100.00
2024-04-18T05:46:11.125Z,100.00
2024-04-18T05:48:38.174Z,100.00
2024-04-18T05:51:06.309Z,100.00
2024-04-18T05:53:33.112Z,100.00
2024-04-18T05:56:00.170Z,100.00
2024-04-18T05:58:27.323Z,100.00
2024-04-18T06:00:54.336Z,100.00
2024-04-18T06:03:24.164Z,100.00
2024-04-18T06:05:51.174Z,100.00
2024-04-18T06:08:18.107Z,100.00
2024-04-18T06:10:45.024Z,100.00
2024-04-18T06:13:24.018Z,100.00
2024-04-18T06:15:51.271Z,100.00
2024-04-18T06:18:18.523Z,100.00
2024-04-18T06:20:47.359Z,100.00
2024-04-18T06:23:15.177Z,100.00
2024-04-18T06:25:42.872Z,100.00
2024-04-18T06:28:11.868Z,100.00
2024-04-18T06:30:39.647Z,100.00
2024-04-18T06:33:11.056Z,100.00
2024-04-18T06:35:38.063Z,100.00
2024-04-18T06:38:04.970Z,100.00
2024-04-18T06:40:31.903Z,100.00
2024-04-18T06:42:58.721Z,100.00
2024-04-18T06:45:26.452Z,100.00
2024-04-18T06:47:53.916Z,100.00
2024-04-18T06:50:24.237Z,100.00
2024-04-18T06:52:53.441Z,100.00
2024-04-18T06:55:20.336Z,100.00
2024-04-18T06:57:47.326Z,100.00
2024-04-18T07:00:14.546Z,100.00
2024-04-18T07:02:41.803Z,100.00
2024-04-18T07:05:27.526Z,100.00
2024-04-18T07:08:14.557Z,100.00
2024-04-18T07:10:41.636Z,100.00
2024-04-18T07:13:54.090Z,100.00
2024-04-18T07:16:30.136Z,100.00
2024-04-18T07:18:57.464Z,100.00
2024-04-18T07:21:24.455Z,100.00
2024-04-18T07:24:11.590Z,100.00
2024-04-18T07:26:41.423Z,100.00
2024-04-18T07:29:08.327Z,100.00
2024-04-18T07:31:35.368Z,100.00
2024-04-18T07:34:16.254Z,100.00
2024-04-18T07:36:49.976Z,100.00
2024-04-18T07:39:17.331Z,100.00
2024-04-18T07:41:44.208Z,100.00
2024-04-18T07:44:13.492Z,100.00
2024-04-18T07:46:41.263Z,100.00
2024-04-18T07:49:09.318Z,100.00
2024-04-18T07:51:36.625Z,100.00
2024-04-18T07:54:03.604Z,100.00
2024-04-18T07:56:30.889Z,100.00
2024-04-18T07:58:59.079Z,100.00
2024-04-18T08:01:27.571Z,100.00
2024-04-18T08:04:16.943Z,100.00
2024-04-18T08:06:47.144Z,100.00
2024-04-18T08:09:19.520Z,100.00
2024-04-18T08:14:22.072Z,100.00
2024-04-18T08:16:51.850Z,100.00
2024-04-18T08:19:18.658Z,100.00
2024-04-18T08:21:45.601Z,100.00
2024-04-18T08:24:20.169Z,100.00
2024-04-18T08:26:47.084Z,100.00
2024-04-18T08:29:13.918Z,100.00
2024-04-18T08:31:40.926Z,100.00
2024-04-18T08:34:15.975Z,99.65
2024-04-18T08:36:45.066Z,100.00
2024-04-18T08:39:11.959Z,100.00
2024-04-18T08:41:41.093Z,100.00
2024-04-18T08:44:10.340Z,100.00
2024-04-18T08:46:38.154Z,100.00
2024-04-18T08:49:09.428Z,91.31
2024-04-18T08:51:38.250Z,100.00
2024-04-18T08:54:06.320Z,100.00
2024-04-18T08:56:35.646Z,99.77
2024-04-18T08:59:03.107Z,90.49
2024-04-18T09:01:30.042Z,87.30
2024-04-18T09:03:58.643Z,93.52
2024-04-18T09:06:26.398Z,94.96
2024-04-18T09:08:53.644Z,99.30
2024-04-18T09:11:20.867Z,80.69
2024-04-18T09:13:48.338Z,86.34
2024-04-18T09:16:15.496Z,91.90
2024-04-18T09:18:42.484Z,95.78
2024-04-18T09:21:13.420Z,97.96
2024-04-18T09:23:41.191Z,96.68
2024-04-18T09:26:08.600Z,86.72
2024-04-18T09:28:35.840Z,83.65
2024-04-18T09:31:06.497Z,74.18
2024-04-18T09:33:36.712Z,70.83
2024-04-18T09:36:04.141Z,73.41
2024-04-18T09:38:35.300Z,73.28
2024-04-18T09:41:11.465Z,80.83
2024-04-18T09:43:45.940Z,65.21
2024-04-18T09:46:15.260Z,85.95
2024-04-18T09:48:42.466Z,73.54
2024-04-18T09:51:10.440Z,73.20
2024-04-18T09:53:38.404Z,68.39
2024-04-18T09:56:06.569Z,64.97
2024-04-18T09:58:34.780Z,81.79
2024-04-18T10:01:03.009Z,64.07
2024-04-18T10:03:30.350Z,65.07
2024-04-18T10:06:02.150Z,71.81
2024-04-18T10:08:34.587Z,66.83
2024-04-18T10:11:02.206Z,61.80
2024-04-18T10:13:29.693Z,62.38
2024-04-18T10:16:12.913Z,68.44
2024-04-18T10:18:41.436Z,70.10
2024-04-18T10:21:22.512Z,57.94
2024-04-18T10:23:55.157Z,64.55
2024-04-18T10:26:23.365Z,71.32
2024-04-18T10:28:51.425Z,78.51
2024-04-18T10:31:19.823Z,71.79
2024-04-18T10:33:47.187Z,79.42
2024-04-18T10:36:15.481Z,65.55
2024-04-18T10:38:45.119Z,61.78
2024-04-18T10:41:17.263Z,61.27
2024-04-18T10:43:45.327Z,60.14
2024-04-18T10:46:14.015Z,61.35
2024-04-18T10:48:44.219Z,55.96
2024-04-18T10:51:11.233Z,54.71
2024-04-18T10:53:39.347Z,60.12
2024-04-18T10:56:06.631Z,58.32
2024-04-18T10:58:33.800Z,61.61
2024-04-18T11:01:02.040Z,59.93
2024-04-18T11:03:29.295Z,56.24
2024-04-18T11:06:01.119Z,60.86
2024-04-18T11:08:35.064Z,54.47
2024-04-18T11:11:04.471Z,59.16
2024-04-18T11:13:31.708Z,53.53
2024-04-18T11:15:58.736Z,56.33
2024-04-18T11:18:26.014Z,53.87
2024-04-18T11:20:54.098Z,59.39
2024-04-18T11:23:35.275Z,55.38
2024-04-18T11:26:14.025Z,56.68
2024-04-18T11:28:41.398Z,54.39
2024-04-18T11:31:08.309Z,52.59
2024-04-18T11:33:35.271Z,52.29
2024-04-18T11:36:02.316Z,50.98
2024-04-18T11:38:30.663Z,52.07
2024-04-18T11:40:58.827Z,50.18
2024-04-18T11:43:25.811Z,48.32
2024-04-18T11:45:54.906Z,49.47
2024-04-18T11:48:21.975Z,52.88
2024-04-18T11:50:48.866Z,47.64
2024-04-18T11:53:15.688Z,50.93
2024-04-18T11:55:42.623Z,51.65
2024-04-18T11:58:27.767Z,48.56
2024-04-18T12:00:54.797Z,55.43
2024-04-18T12:03:38.727Z,53.43
2024-04-18T12:06:25.959Z,53.06
2024-04-18T12:08:55.181Z,51.75
2024-04-18T12:11:30.062Z,59.74
2024-04-18T12:14:13.294Z,54.59
2024-04-18T12:16:56.986Z,51.97
2024-04-18T12:19:44.599Z,54.15
2024-04-18T12:22:32.199Z,58.84
2024-04-18T12:25:18.624Z,56.26
2024-04-18T12:27:46.908Z,66.84
2024-04-18T12:30:33.046Z,54.91
2024-04-18T12:33:18.798Z,52.66
2024-04-18T12:35:46.004Z,50.48
2024-04-18T12:38:13.044Z,53.14
2024-04-18T12:40:43.228Z,51.01
2024-04-18T12:43:10.261Z,53.32
2024-04-18T12:46:00.177Z,61.88
2024-04-18T12:48:57.839Z,52.77
2024-04-18T12:51:25.210Z,54.69
2024-04-18T12:53:54.712Z,56.62
2024-04-18T12:56:41.841Z,51.71
2024-04-18T12:59:21.422Z,50.21
2024-04-18T13:01:48.391Z,51.42
2024-04-18T13:04:21.455Z,54.69
2024-04-18T13:06:48.918Z,59.73
2024-04-18T13:09:28.075Z,53.25
2024-04-18T13:11:59.580Z,54.60
2024-04-18T13:14:26.535Z,58.03
2024-04-18T13:16:55.734Z,51.76
2024-04-18T13:19:42.774Z,52.44
2024-04-18T13:22:15.715Z,53.59
2024-04-18T13:24:42.845Z,53.27
2024-04-18T13:27:25.495Z,53.31
2024-04-18T13:29:56.256Z,53.53
2024-04-18T13:32:39.598Z,56.45
2024-04-18T13:35:07.838Z,60.25
2024-04-18T13:37:35.001Z,60.84
2024-04-18T13:40:19.067Z,63.93
2024-04-18T13:42:55.216Z,60.93
2024-04-18T13:45:29.299Z,63.28
2024-04-18T13:47:56.468Z,61.64
2024-04-18T13:50:42.082Z,54.68
2024-04-18T13:53:09.074Z,52.40
2024-04-18T13:55:44.614Z,54.05
2024-04-18T13:58:11.512Z,50.99
2024-04-18T14:00:56.699Z,52.06
2024-04-18T14:03:30.389Z,55.51
2024-04-18T14:06:08.616Z,52.02
2024-04-18T14:08:40.062Z,52.14
2024-04-18T14:11:27.867Z,53.52
2024-04-18T14:14:09.087Z,51.24
2024-04-18T14:16:56.171Z,52.71
2024-04-18T14:19:33.321Z,56.62
2024-04-18T14:22:07.967Z,51.59
2024-04-18T14:24:35.236Z,51.15
2024-04-18T14:27:02.459Z,56.46
2024-04-18T14:29:29.321Z,51.58
2024-04-18T14:32:01.611Z,48.43
2024-04-18T14:34:48.172Z,48.82
2024-04-18T14:37:17.384Z,53.05
2024-04-18T14:39:44.464Z,52.57
2024-04-18T14:42:11.539Z,49.81
2024-04-18T14:44:38.493Z,49.00
2024-04-18T14:47:18.160Z,46.09
2024-04-18T14:50:00.495Z,48.17
2024-04-18T14:52:33.779Z,48.21
2024-04-18T14:55:00.942Z,47.55
2024-04-18T14:57:34.379Z,50.26
2024-04-18T15:00:19.899Z,50.17
2024-04-18T15:02:47.087Z,51.58
2024-04-18T15:05:33.282Z,50.58
2024-04-18T15:08:00.753Z,50.81
2024-04-18T15:10:46.697Z,52.47
2024-04-18T15:13:13.644Z,47.61
2024-04-18T15:15:42.547Z,47.59
2024-04-18T15:18:09.686Z,50.21
2024-04-18T15:20:36.645Z,49.42
2024-04-18T15:23:12.508Z,46.41
2024-04-18T15:25:39.303Z,48.01
2024-04-18T15:28:06.509Z,48.48
2024-04-18T15:30:33.781Z,48.56
2024-04-18T15:33:13.364Z,51.93
2024-04-18T15:35:42.291Z,53.86
2024-04-18T15:38:17.917Z,52.91
2024-04-18T15:41:03.901Z,54.86
2024-04-18T15:43:39.582Z,53.61
2024-04-18T15:46:26.427Z,56.51
2024-04-18T15:49:07.926Z,48.43
2024-04-18T15:51:35.015Z,51.04
2024-04-18T15:54:08.041Z,48.76
2024-04-18T15:56:35.012Z,48.52
2024-04-18T15:59:01.885Z,47.60
2024-04-18T16:01:47.868Z,47.17
2024-04-18T16:04:34.834Z,49.85
2024-04-18T16:07:02.281Z,48.76
2024-04-18T16:09:48.000Z,51.20
2024-04-18T16:12:21.506Z,49.69
2024-04-18T16:15:05.190Z,51.48
2024-04-18T16:17:32.298Z,49.22
2024-04-18T16:20:12.910Z,48.19
2024-04-18T16:22:39.864Z,49.64
2024-04-18T16:25:25.561Z,50.51
2024-04-18T16:27:52.541Z,50.13
2024-04-18T16:30:20.854Z,50.33
2024-04-18T16:32:50.754Z,49.51
2024-04-18T16:35:17.885Z,48.86
2024-04-18T16:38:04.900Z,50.32
2024-04-18T16:40:49.827Z,52.55
2024-04-18T16:43:36.287Z,51.49
2024-04-18T16:46:05.263Z,54.96
2024-04-18T16:48:32.091Z,54.21
2024-04-18T16:50:59.224Z,51.78
2024-04-18T16:53:46.033Z,55.18
2024-04-18T16:56:15.832Z,50.43
2024-04-18T16:58:55.752Z,52.73
2024-04-18T17:01:23.146Z,53.80
2024-04-18T17:03:50.436Z,52.74
2024-04-18T17:06:41.982Z,55.83
2024-04-18T17:09:14.774Z,56.22
2024-04-18T17:11:41.807Z,59.35
2024-04-18T17:14:27.248Z,59.29
2024-04-18T17:16:54.253Z,60.98
2024-04-18T17:19:21.417Z,61.33
2024-04-18T17:21:48.677Z,59.94
2024-04-18T17:24:15.805Z,58.44
2024-04-18T17:27:04.525Z,61.16
2024-04-18T17:29:31.482Z,61.66
2024-04-18T17:31:58.346Z,60.68
2024-04-18T17:34:25.274Z,59.71
2024-04-18T17:36:52.169Z,60.79
2024-04-18T17:39:39.250Z,65.27
2024-04-18T17:42:06.432Z,64.57
2024-04-18T17:44:53.243Z,69.13
2024-04-18T17:47:26.265Z,65.53
2024-04-18T17:49:53.166Z,71.94
2024-04-18T17:52:24.970Z,76.58
2024-04-18T17:54:53.244Z,72.66
2024-04-18T17:57:21.318Z,73.48
2024-04-18T18:00:09.899Z,76.81
2024-04-18T18:02:39.463Z,81.18
2024-04-18T18:05:06.468Z,81.48
2024-04-18T18:07:33.584Z,82.65
2024-04-18T18:10:00.416Z,84.99
2024-04-18T18:12:27.451Z,90.85
2024-04-18T18:14:54.585Z,93.26
2024-04-18T18:17:21.428Z,91.72
2024-04-18T18:19:48.339Z,93.95
2024-04-18T18:22:15.194Z,93.07
2024-04-18T18:24:42.193Z,96.82
2024-04-18T18:27:09.237Z,99.55
2024-04-18T18:29:36.454Z,100.00
2024-04-18T18:32:14.614Z,100.00
2024-04-18T18:34:47.027Z,100.00
2024-04-18T18:37:14.883Z,100.00
2024-04-18T18:39:42.645Z,100.00
2024-04-18T18:42:09.719Z,100.00
2024-04-18T18:44:36.561Z,100.00
2024-04-18T18:47:03.469Z,100.00
2024-04-18T18:49:48.690Z,100.00
2024-04-18T18:52:15.673Z,100.00
2024-04-18T18:54:42.529Z,100.00
2024-04-18T18:57:09.619Z,100.00
2024-04-18T18:59:36.450Z,100.00
2024-04-18T19:02:03.361Z,100.00
2024-04-18T19:04:50.251Z,100.00
2024-04-18T19:07:17.322Z,100.00
2024-04-18T19:09:44.534Z,100.00
2024-04-18T19:12:12.704Z,100.00
2024-04-18T19:14:39.540Z,100.00
2024-04-18T19:17:07.580Z,100.00
2024-04-18T19:19:35.190Z,100.00
2024-04-18T19:22:04.063Z,100.00
2024-04-18T19:24:31.085Z,100.00
2024-04-18T19:27:00.854Z,100.00
2024-04-18T19:29:39.198Z,100.00
2024-04-18T19:32:11.831Z,100.00
2024-04-18T19:34:38.652Z,100.00
2024-04-18T19:37:05.827Z,100.00
2024-04-18T19:39:32.816Z,100.00
2024-04-18T19:42:01.066Z,100.00
2024-04-18T19:44:28.252Z,100.00
2024-04-18T19:46:55.123Z,100.00
2024-04-18T19:49:22.106Z,100.00
2024-04-18T19:52:01.533Z,100.00
2024-04-18T19:54:31.100Z,100.00
2024-04-18T19:56:57.960Z,100.00
2024-04-18T19:59:24.875Z,100.00
2024-04-18T20:01:51.791Z,100.00
2024-04-18T20:04:18.953Z,100.00
2024-04-18T20:06:45.892Z,100.00
2024-04-18T20:09:12.741Z,100.00
2024-04-18T20:11:39.701Z,100.00
2024-04-18T20:14:06.585Z,100.00
2024-04-18T20:16:33.703Z,100.00
2024-04-18T20:19:14.151Z,100.00
2024-04-18T20:21:43.330Z,100.00
2024-04-18T20:24:11.494Z,100.00
2024-04-18T20:26:56.801Z,100.00
2024-04-18T20:29:43.749Z,100.00
2024-04-18T20:32:26.970Z,100.00
2024-04-18T20:34:54.635Z,100.00
2024-04-18T20:37:24.076Z,100.00
2024-04-18T20:39:55.350Z,100.00
2024-04-18T20:42:24.429Z,100.00
2024-04-18T20:45:03.141Z,100.00
2024-04-18T20:47:30.542Z,100.00
2024-04-18T20:49:57.828Z,100.00
2024-04-18T20:52:25.046Z,100.00
2024-04-18T20:54:52.087Z,100.00
2024-04-18T20:57:19.142Z,100.00
2024-04-18T20:59:46.097Z,100.00
2024-04-18T21:02:13.049Z,100.00
2024-04-18T21:04:41.202Z,100.00
2024-04-18T21:07:08.064Z,100.00
2024-04-18T21:09:35.087Z,100.00
2024-04-18T21:12:01.936Z,100.00
2024-04-18T21:14:28.818Z,100.00
2024-04-18T21:16:55.984Z,100.00
2024-04-18T21:19:23.100Z,100.00
2024-04-18T21:21:50.004Z,100.00
2024-04-18T21:24:17.055Z,100.00
2024-04-18T21:26:48.122Z,100.00
2024-04-18T21:29:16.302Z,100.00
2024-04-18T21:31:43.593Z,100.00
2024-04-18T21:34:12.241Z,100.00
2024-04-18T21:36:39.908Z,100.00
2024-04-18T21:39:06.882Z,100.00
2024-04-18T21:41:35.720Z,100.00
2024-04-18T21:44:02.576Z,100.00
2024-04-18T21:46:29.387Z,100.00
2024-04-18T21:48:56.292Z,100.00
2024-04-18T21:51:23.201Z,100.00
2024-04-18T21:53:50.091Z,100.00
2024-04-18T21:56:17.092Z,100.00
2024-04-18T21:58:43.953Z,100.00
2024-04-18T22:01:30.776Z,100.00
2024-04-18T22:03:58.123Z,100.00
2024-04-18T22:06:25.598Z,100.00
2024-04-18T22:08:52.678Z,100.00
2024-04-18T22:11:19.530Z,100.00
2024-04-18T22:13:46.919Z,100.00
2024-04-18T22:16:13.822Z,100.00
2024-04-18T22:18:40.794Z,100.00
2024-04-18T22:21:07.663Z,100.00
2024-04-18T22:23:34.582Z,100.00
2024-04-18T22:26:01.401Z,100.00
2024-04-18T22:28:28.244Z,100.00
2024-04-18T22:31:00.320Z,100.00
2024-04-18T22:33:28.636Z,100.00
2024-04-18T22:35:56.362Z,100.00
2024-04-18T22:38:23.484Z,100.00
2024-04-18T22:40:50.433Z,100.00
2024-04-18T22:43:17.799Z,100.00
2024-04-18T22:45:44.942Z,100.00
2024-04-18T22:48:12.538Z,100.00
2024-04-18T22:50:43.166Z,100.00
2024-04-18T22:53:10.279Z,100.00
2024-04-18T22:55:37.181Z,100.00
2024-04-18T22:58:05.758Z,100.00
2024-04-18T23:00:36.195Z,100.00
2024-04-18T23:03:03.528Z,100.00
2024-04-18T23:05:37.026Z,100.00
2024-04-18T23:08:04.544Z,100.00
2024-04-18T23:10:33.243Z,100.00
2024-04-18T23:13:00.570Z,100.00
2024-04-18T23:15:45.825Z,100.00
2024-04-18T23:18:13.055Z,100.00
2024-04-18T23:20:40.066Z,100.00
2024-04-18T23:23:07.595Z,100.00
2024-04-18T23:25:34.410Z,100.00
2024-04-18T23:28:01.481Z,100.00
2024-04-18T23:30:28.400Z,100.00
2024-04-18T23:32:55.355Z,100.00
2024-04-18T23:35:22.324Z,100.00
2024-04-18T23:37:49.184Z,100.00
2024-04-18T23:40:16.083Z,100.00
2024-04-18T23:42:42.964Z,100.00
2024-04-18T23:45:09.807Z,100.00
2024-04-18T23:47:36.971Z,100.00
2024-04-18T23:50:03.964Z,100.00
2024-04-18T23:52:30.887Z,100.00
2024-04-18T23:54:57.827Z,100.00
2024-04-18T23:57:26.755Z,100.00
2024-04-18T23:59:53.796Z,100.00
